sensor_id;sensor_type;location;lat;lon;timestamp;temperature;humidity
21592;DHT22;10958;50.892;3.992;2022-09-09T00:09:28;16.40;99.90
21592;DHT22;10958;50.892;3.992;2022-09-09T00:15:40;16.30;99.90
21592;DHT22;10958;50.892;3.992;2022-09-09T01:13:02;16.10;99.90
21592;DHT22;10958;50.892;3.992;2022-09-09T01:16:18;15.90;99.90
21592;DHT22;10958;50.892;3.992;2022-09-09T01:19:49;15.80;99.90
21592;DHT22;10958;50.892;3.992;2022-09-09T01:28:31;15.90;99.90
21592;DHT22;10958;50.892;3.992;2022-09-09T01:43:05;15.90;99.90
21592;DHT22;10958;50.892;3.992;2022-09-09T01:46:23;15.70;99.90
21592;DHT22;10958;50.892;3.992;2022-09-09T01:52:38;15.70;99.90
21592;DHT22;10958;50.892;3.992;2022-09-09T02:12:23;15.50;99.90
21592;DHT22;10958;50.892;3.992;2022-09-09T02:18:11;15.50;99.90
21592;DHT22;10958;50.892;3.992;2022-09-09T02:21:19;15.50;99.90
21592;DHT22;10958;50.892;3.992;2022-09-09T02:23:59;15.50;99.90
21592;DHT22;10958;50.892;3.992;2022-09-09T02:26:41;15.50;99.90
21592;DHT22;10958;50.892;3.992;2022-09-09T02:29:54;15.60;99.90
21592;DHT22;10958;50.892;3.992;2022-09-09T02:32:35;15.50;99.90
21592;DHT22;10958;50.892;3.992;2022-09-09T02:35:31;15.40;99.90
21592;DHT22;10958;50.892;3.992;2022-09-09T02:38:28;15.40;99.90
21592;DHT22;10958;50.892;3.992;2022-09-09T02:44:20;15.40;99.90
21592;DHT22;10958;50.892;3.992;2022-09-09T02:47:37;15.30;99.90
21592;DHT22;10958;50.892;3.992;2022-09-09T02:50:47;15.40;99.90
21592;DHT22;10958;50.892;3.992;2022-09-09T03:03:25;15.30;99.90
21592;DHT22;10958;50.892;3.992;2022-09-09T03:06:43;15.30;99.90
21592;DHT22;10958;50.892;3.992;2022-09-09T03:09:35;15.30;99.90
21592;DHT22;10958;50.892;3.992;2022-09-09T03:16:04;15.20;99.90
21592;DHT22;10958;50.892;3.992;2022-09-09T03:34:05;15.30;99.90
21592;DHT22;10958;50.892;3.992;2022-09-09T03:37:15;15.30;99.90
21592;DHT22;10958;50.892;3.992;2022-09-09T03:39:52;15.40;99.90
21592;DHT22;10958;50.892;3.992;2022-09-09T03:42:20;15.50;99.90
21592;DHT22;10958;50.892;3.992;2022-09-09T03:51:44;15.70;99.90
21592;DHT22;10958;50.892;3.992;2022-09-09T03:58:00;15.60;99.90
21592;DHT22;10958;50.892;3.992;2022-09-09T04:00:36;15.70;99.90
21592;DHT22;10958;50.892;3.992;2022-09-09T04:03:14;15.80;99.90
21592;DHT22;10958;50.892;3.992;2022-09-09T04:05:59;15.80;99.90
21592;DHT22;10958;50.892;3.992;2022-09-09T04:08:42;15.70;99.90
21592;DHT22;10958;50.892;3.992;2022-09-09T04:13:34;15.60;99.90
21592;DHT22;10958;50.892;3.992;2022-09-09T04:16:02;15.70;99.90
21592;DHT22;10958;50.892;3.992;2022-09-09T04:18:29;15.50;99.90
21592;DHT22;10958;50.892;3.992;2022-09-09T04:20:57;15.60;99.90
21592;DHT22;10958;50.892;3.992;2022-09-09T04:23:32;15.70;99.90
21592;DHT22;10958;50.892;3.992;2022-09-09T04:26:30;15.80;99.90
21592;DHT22;10958;50.892;3.992;2022-09-09T04:29:43;15.70;99.90
21592;DHT22;10958;50.892;3.992;2022-09-09T04:32:49;15.80;99.90
21592;DHT22;10958;50.892;3.992;2022-09-09T04:42:21;15.70;99.90
21592;DHT22;10958;50.892;3.992;2022-09-09T04:59:08;15.60;99.90
21592;DHT22;10958;50.892;3.992;2022-09-09T05:02:10;15.80;99.90
21592;DHT22;10958;50.892;3.992;2022-09-09T05:08:46;15.90;99.90
21592;DHT22;10958;50.892;3.992;2022-09-09T05:15:29;15.90;99.90
21592;DHT22;10958;50.892;3.992;2022-09-09T05:22:11;15.90;99.90
21592;DHT22;10958;50.892;3.992;2022-09-09T05:25:04;15.80;99.90
21592;DHT22;10958;50.892;3.992;2022-09-09T05:28:11;15.70;99.90
21592;DHT22;10958;50.892;3.992;2022-09-09T05:31:24;15.70;99.90
21592;DHT22;10958;50.892;3.992;2022-09-09T05:34:31;15.80;99.90
21592;DHT22;10958;50.892;3.992;2022-09-09T05:40:33;15.80;99.90
21592;DHT22;10958;50.892;3.992;2022-09-09T05:43:25;15.80;99.90
21592;DHT22;10958;50.892;3.992;2022-09-09T05:46:11;15.90;99.90
21592;DHT22;10958;50.892;3.992;2022-09-09T05:48:48;15.90;99.90
21592;DHT22;10958;50.892;3.992;2022-09-09T05:54:26;15.90;99.90
21592;DHT22;10958;50.892;3.992;2022-09-09T05:57:24;16.10;99.90
21592;DHT22;10958;50.892;3.992;2022-09-09T06:00:11;16.20;99.90
21592;DHT22;10958;50.892;3.992;2022-09-09T06:03:31;16.30;99.90
21592;DHT22;10958;50.892;3.992;2022-09-09T06:06:12;16.40;99.90
21592;DHT22;10958;50.892;3.992;2022-09-09T06:12:28;16.20;99.90
21592;DHT22;10958;50.892;3.992;2022-09-09T06:18:47;16.30;99.90
21592;DHT22;10958;50.892;3.992;2022-09-09T06:21:39;16.30;99.90
21592;DHT22;10958;50.892;3.992;2022-09-09T06:24:14;16.30;99.90
21592;DHT22;10958;50.892;3.992;2022-09-09T06:30:39;16.40;99.90
21592;DHT22;10958;50.892;3.992;2022-09-09T06:33:16;16.40;99.90
21592;DHT22;10958;50.892;3.992;2022-09-09T06:36:16;16.40;99.90
21592;DHT22;10958;50.892;3.992;2022-09-09T06:39:08;16.30;99.90
21592;DHT22;10958;50.892;3.992;2022-09-09T06:41:40;16.40;99.90
21592;DHT22;10958;50.892;3.992;2022-09-09T06:44:50;16.50;99.90
21592;DHT22;10958;50.892;3.992;2022-09-09T06:48:04;16.50;99.90
21592;DHT22;10958;50.892;3.992;2022-09-09T06:50:44;16.60;99.90
21592;DHT22;10958;50.892;3.992;2022-09-09T06:59:35;16.90;99.90
21592;DHT22;10958;50.892;3.992;2022-09-09T07:02:22;16.80;99.90
21592;DHT22;10958;50.892;3.992;2022-09-09T07:05:16;16.80;99.90
21592;DHT22;10958;50.892;3.992;2022-09-09T07:07:43;16.80;99.90
21592;DHT22;10958;50.892;3.992;2022-09-09T07:22:03;16.50;99.90
21592;DHT22;10958;50.892;3.992;2022-09-09T07:25:09;16.60;99.90
21592;DHT22;10958;50.892;3.992;2022-09-09T07:31:44;16.90;99.90
21592;DHT22;10958;50.892;3.992;2022-09-09T07:34:42;16.80;99.90
21592;DHT22;10958;50.892;3.992;2022-09-09T07:44:41;16.70;99.90
21592;DHT22;10958;50.892;3.992;2022-09-09T08:02:53;17.20;99.90
21592;DHT22;10958;50.892;3.992;2022-09-09T08:16:24;17.10;99.90
21592;DHT22;10958;50.892;3.992;2022-09-09T08:25:27;17.00;99.90
21592;DHT22;10958;50.892;3.992;2022-09-09T08:31:55;16.80;99.90
21592;DHT22;10958;50.892;3.992;2022-09-09T08:34:36;16.70;99.90
21592;DHT22;10958;50.892;3.992;2022-09-09T08:37:05;16.70;99.90
21592;DHT22;10958;50.892;3.992;2022-09-09T08:40:22;16.70;99.90
21592;DHT22;10958;50.892;3.992;2022-09-09T08:43:15;16.60;99.90
21592;DHT22;10958;50.892;3.992;2022-09-09T08:49:39;16.80;99.90
21592;DHT22;10958;50.892;3.992;2022-09-09T08:58:31;17.00;99.90
21592;DHT22;10958;50.892;3.992;2022-09-09T09:16:38;16.80;99.90
21592;DHT22;10958;50.892;3.992;2022-09-09T09:19:34;16.90;99.90
21592;DHT22;10958;50.892;3.992;2022-09-09T09:25:41;17.00;99.90
21592;DHT22;10958;50.892;3.992;2022-09-09T09:33:56;17.10;99.90
21592;DHT22;10958;50.892;3.992;2022-09-09T09:39:45;17.30;99.90
21592;DHT22;10958;50.892;3.992;2022-09-09T09:42:47;17.20;99.90
21592;DHT22;10958;50.892;3.992;2022-09-09T09:45:51;17.20;99.90
21592;DHT22;10958;50.892;3.992;2022-09-09T09:57:26;17.70;99.90
21592;DHT22;10958;50.892;3.992;2022-09-09T10:03:51;18.00;99.90
21592;DHT22;10958;50.892;3.992;2022-09-09T10:19:42;18.50;99.90
21592;DHT22;10958;50.892;3.992;2022-09-09T10:23:26;18.40;99.90
21592;DHT22;10958;50.892;3.992;2022-09-09T10:58:00;18.60;99.90
21592;DHT22;10958;50.892;3.992;2022-09-09T11:37:22;18.70;99.90
21592;DHT22;10958;50.892;3.992;2022-09-09T11:40:46;18.70;99.90
21592;DHT22;10958;50.892;3.992;2022-09-09T11:43:52;18.80;99.90
21592;DHT22;10958;50.892;3.992;2022-09-09T11:46:38;18.90;99.90
21592;DHT22;10958;50.892;3.992;2022-09-09T11:49:27;19.10;99.90
21592;DHT22;10958;50.892;3.992;2022-09-09T11:55:30;19.20;99.90
21592;DHT22;10958;50.892;3.992;2022-09-09T11:58:22;19.20;99.90
21592;DHT22;10958;50.892;3.992;2022-09-09T12:01:34;19.40;99.90
21592;DHT22;10958;50.892;3.992;2022-09-09T12:10:20;19.60;99.90
21592;DHT22;10958;50.892;3.992;2022-09-09T12:12:50;19.70;99.90
21592;DHT22;10958;50.892;3.992;2022-09-09T12:15:26;19.70;99.90
21592;DHT22;10958;50.892;3.992;2022-09-09T12:18:14;19.80;99.90
21592;DHT22;10958;50.892;3.992;2022-09-09T12:20:57;20.10;99.90
21592;DHT22;10958;50.892;3.992;2022-09-09T12:23:43;20.00;99.90
21592;DHT22;10958;50.892;3.992;2022-09-09T12:32:02;20.00;99.90
21592;DHT22;10958;50.892;3.992;2022-09-09T12:37:41;19.80;99.90
21592;DHT22;10958;50.892;3.992;2022-09-09T12:40:33;19.90;99.90
21592;DHT22;10958;50.892;3.992;2022-09-09T12:43:20;20.00;99.90
21592;DHT22;10958;50.892;3.992;2022-09-09T12:45:47;19.90;99.90
21592;DHT22;10958;50.892;3.992;2022-09-09T12:48:18;19.80;99.90
21592;DHT22;10958;50.892;3.992;2022-09-09T12:50:50;19.70;99.90
21592;DHT22;10958;50.892;3.992;2022-09-09T12:53:23;19.80;99.90
21592;DHT22;10958;50.892;3.992;2022-09-09T12:56:05;20.00;99.90
21592;DHT22;10958;50.892;3.992;2022-09-09T12:58:36;20.10;99.90
21592;DHT22;10958;50.892;3.992;2022-09-09T13:01:06;20.20;99.90
21592;DHT22;10958;50.892;3.992;2022-09-09T13:03:49;20.00;99.90
21592;DHT22;10958;50.892;3.992;2022-09-09T13:06:25;20.20;99.90
21592;DHT22;10958;50.892;3.992;2022-09-09T13:08:54;20.30;99.90
21592;DHT22;10958;50.892;3.992;2022-09-09T13:11:40;20.20;99.90
21592;DHT22;10958;50.892;3.992;2022-09-09T13:14:16;20.20;99.90
21592;DHT22;10958;50.892;3.992;2022-09-09T13:16:56;20.30;99.90
21592;DHT22;10958;50.892;3.992;2022-09-09T13:19:25;20.40;99.90
21592;DHT22;10958;50.892;3.992;2022-09-09T13:21:53;20.50;99.90
21592;DHT22;10958;50.892;3.992;2022-09-09T13:24:33;20.90;99.90
21592;DHT22;10958;50.892;3.992;2022-09-09T13:29:54;21.00;99.90
21592;DHT22;10958;50.892;3.992;2022-09-09T13:32:25;21.40;99.90
21592;DHT22;10958;50.892;3.992;2022-09-09T13:35:01;21.20;99.90
21592;DHT22;10958;50.892;3.992;2022-09-09T13:37:37;21.20;99.90
21592;DHT22;10958;50.892;3.992;2022-09-09T13:40:19;21.00;99.90
21592;DHT22;10958;50.892;3.992;2022-09-09T13:42:56;20.80;99.90
21592;DHT22;10958;50.892;3.992;2022-09-09T13:45:29;20.80;99.90
21592;DHT22;10958;50.892;3.992;2022-09-09T13:48:08;20.90;99.90
21592;DHT22;10958;50.892;3.992;2022-09-09T13:50:35;20.90;99.90
21592;DHT22;10958;50.892;3.992;2022-09-09T13:53:16;20.90;99.90
21592;DHT22;10958;50.892;3.992;2022-09-09T13:55:48;21.10;99.90
21592;DHT22;10958;50.892;3.992;2022-09-09T13:58:17;21.20;99.90
21592;DHT22;10958;50.892;3.992;2022-09-09T14:00:47;21.30;99.90
21592;DHT22;10958;50.892;3.992;2022-09-09T14:03:16;21.40;99.90
21592;DHT22;10958;50.892;3.992;2022-09-09T14:05:45;21.50;99.90
21592;DHT22;10958;50.892;3.992;2022-09-09T14:08:35;21.30;99.90
21592;DHT22;10958;50.892;3.992;2022-09-09T14:11:07;21.30;99.90
21592;DHT22;10958;50.892;3.992;2022-09-09T14:13:34;21.50;99.90
21592;DHT22;10958;50.892;3.992;2022-09-09T14:16:17;21.70;99.90
21592;DHT22;10958;50.892;3.992;2022-09-09T14:18:51;21.90;99.90
21592;DHT22;10958;50.892;3.992;2022-09-09T14:21:17;21.70;99.90
21592;DHT22;10958;50.892;3.992;2022-09-09T14:23:46;21.80;99.90
21592;DHT22;10958;50.892;3.992;2022-09-09T14:26:14;21.70;99.90
21592;DHT22;10958;50.892;3.992;2022-09-09T14:28:51;21.50;99.90
21592;DHT22;10958;50.892;3.992;2022-09-09T14:31:19;21.60;99.90
21592;DHT22;10958;50.892;3.992;2022-09-09T14:33:48;21.80;99.90
21592;DHT22;10958;50.892;3.992;2022-09-09T14:36:25;21.70;99.90
21592;DHT22;10958;50.892;3.992;2022-09-09T14:38:56;21.70;99.90
21592;DHT22;10958;50.892;3.992;2022-09-09T14:41:26;21.90;99.90
21592;DHT22;10958;50.892;3.992;2022-09-09T14:43:53;22.00;99.90
21592;DHT22;10958;50.892;3.992;2022-09-09T14:46:22;21.80;99.90
21592;DHT22;10958;50.892;3.992;2022-09-09T14:48:55;21.50;99.90
21592;DHT22;10958;50.892;3.992;2022-09-09T14:51:26;21.60;99.90
21592;DHT22;10958;50.892;3.992;2022-09-09T14:53:55;21.70;99.90
21592;DHT22;10958;50.892;3.992;2022-09-09T14:56:31;21.80;99.90
21592;DHT22;10958;50.892;3.992;2022-09-09T14:59:00;21.90;99.90
21592;DHT22;10958;50.892;3.992;2022-09-09T15:01:33;21.70;99.90
21592;DHT22;10958;50.892;3.992;2022-09-09T15:04:02;21.60;99.90
21592;DHT22;10958;50.892;3.992;2022-09-09T15:06:30;21.40;99.90
21592;DHT22;10958;50.892;3.992;2022-09-09T15:09:00;21.30;99.90
21592;DHT22;10958;50.892;3.992;2022-09-09T15:11:28;21.30;99.90
21592;DHT22;10958;50.892;3.992;2022-09-09T15:13:59;21.20;99.90
21592;DHT22;10958;50.892;3.992;2022-09-09T15:16:25;21.20;99.90
21592;DHT22;10958;50.892;3.992;2022-09-09T15:18:54;21.40;99.90
21592;DHT22;10958;50.892;3.992;2022-09-09T15:21:22;21.40;99.90
21592;DHT22;10958;50.892;3.992;2022-09-09T15:23:48;21.40;99.90
21592;DHT22;10958;50.892;3.992;2022-09-09T15:26:18;21.40;99.90
21592;DHT22;10958;50.892;3.992;2022-09-09T15:28:50;21.30;99.90
21592;DHT22;10958;50.892;3.992;2022-09-09T15:31:29;21.20;99.90
21592;DHT22;10958;50.892;3.992;2022-09-09T15:36:49;21.20;99.90
21592;DHT22;10958;50.892;3.992;2022-09-09T15:39:17;20.90;99.90
21592;DHT22;10958;50.892;3.992;2022-09-09T15:41:44;21.00;99.90
21592;DHT22;10958;50.892;3.992;2022-09-09T15:44:19;20.90;99.90
21592;DHT22;10958;50.892;3.992;2022-09-09T15:46:54;20.90;99.90
21592;DHT22;10958;50.892;3.992;2022-09-09T15:49:22;20.70;99.90
21592;DHT22;10958;50.892;3.992;2022-09-09T15:51:53;20.70;99.90
21592;DHT22;10958;50.892;3.992;2022-09-09T15:54:32;20.60;99.90
21592;DHT22;10958;50.892;3.992;2022-09-09T15:57:00;20.50;99.90
21592;DHT22;10958;50.892;3.992;2022-09-09T15:59:28;20.40;99.90
21592;DHT22;10958;50.892;3.992;2022-09-09T16:02:05;20.10;99.90
21592;DHT22;10958;50.892;3.992;2022-09-09T16:04:33;19.80;99.90
21592;DHT22;10958;50.892;3.992;2022-09-09T16:07:04;19.80;99.90
21592;DHT22;10958;50.892;3.992;2022-09-09T16:09:31;19.70;99.90
21592;DHT22;10958;50.892;3.992;2022-09-09T16:12:02;19.50;99.90
21592;DHT22;10958;50.892;3.992;2022-09-09T16:14:31;19.50;99.90
21592;DHT22;10958;50.892;3.992;2022-09-09T16:17:02;19.50;99.90
21592;DHT22;10958;50.892;3.992;2022-09-09T16:19:30;19.70;99.90
21592;DHT22;10958;50.892;3.992;2022-09-09T16:21:56;19.60;99.90
21592;DHT22;10958;50.892;3.992;2022-09-09T16:24:24;19.70;99.90
21592;DHT22;10958;50.892;3.992;2022-09-09T16:26:52;19.80;99.90
21592;DHT22;10958;50.892;3.992;2022-09-09T16:29:27;19.90;99.90
21592;DHT22;10958;50.892;3.992;2022-09-09T16:31:57;20.20;99.90
21592;DHT22;10958;50.892;3.992;2022-09-09T16:34:25;20.20;99.90
21592;DHT22;10958;50.892;3.992;2022-09-09T16:36:51;20.00;99.90
21592;DHT22;10958;50.892;3.992;2022-09-09T16:39:18;20.10;99.90
21592;DHT22;10958;50.892;3.992;2022-09-09T16:41:46;20.20;99.90
21592;DHT22;10958;50.892;3.992;2022-09-09T16:44:15;20.30;99.90
21592;DHT22;10958;50.892;3.992;2022-09-09T16:46:48;20.30;99.90
21592;DHT22;10958;50.892;3.992;2022-09-09T16:49:17;20.40;99.90
21592;DHT22;10958;50.892;3.992;2022-09-09T16:51:48;20.50;99.90
21592;DHT22;10958;50.892;3.992;2022-09-09T16:54:16;20.60;99.90
21592;DHT22;10958;50.892;3.992;2022-09-09T16:56:44;20.60;99.90
21592;DHT22;10958;50.892;3.992;2022-09-09T16:59:13;20.40;99.90
21592;DHT22;10958;50.892;3.992;2022-09-09T17:01:44;20.20;99.90
21592;DHT22;10958;50.892;3.992;2022-09-09T17:04:13;20.30;99.90
21592;DHT22;10958;50.892;3.992;2022-09-09T17:06:40;20.20;99.90
21592;DHT22;10958;50.892;3.992;2022-09-09T17:09:10;20.20;99.90
21592;DHT22;10958;50.892;3.992;2022-09-09T17:11:39;20.10;99.90
21592;DHT22;10958;50.892;3.992;2022-09-09T17:14:08;20.10;99.90
21592;DHT22;10958;50.892;3.992;2022-09-09T17:16:35;19.90;99.90
21592;DHT22;10958;50.892;3.992;2022-09-09T17:19:04;19.80;99.90
21592;DHT22;10958;50.892;3.992;2022-09-09T17:21:32;19.60;99.90
21592;DHT22;10958;50.892;3.992;2022-09-09T17:23:58;19.60;99.90
21592;DHT22;10958;50.892;3.992;2022-09-09T17:26:27;19.60;99.90
21592;DHT22;10958;50.892;3.992;2022-09-09T17:29:00;19.50;99.90
21592;DHT22;10958;50.892;3.992;2022-09-09T17:31:30;19.40;99.90
21592;DHT22;10958;50.892;3.992;2022-09-09T17:33:58;19.20;99.90
21592;DHT22;10958;50.892;3.992;2022-09-09T17:36:30;19.30;99.90
21592;DHT22;10958;50.892;3.992;2022-09-09T17:38:57;19.20;99.90
21592;DHT22;10958;50.892;3.992;2022-09-09T17:41:36;19.20;99.90
21592;DHT22;10958;50.892;3.992;2022-09-09T17:44:04;19.30;99.90
21592;DHT22;10958;50.892;3.992;2022-09-09T17:46:32;19.20;99.90
21592;DHT22;10958;50.892;3.992;2022-09-09T17:49:05;19.10;99.90
21592;DHT22;10958;50.892;3.992;2022-09-09T17:51:33;18.90;99.90
21592;DHT22;10958;50.892;3.992;2022-09-09T17:54:05;18.90;99.90
21592;DHT22;10958;50.892;3.992;2022-09-09T17:56:36;18.70;99.90
21592;DHT22;10958;50.892;3.992;2022-09-09T17:59:05;18.50;99.90
21592;DHT22;10958;50.892;3.992;2022-09-09T18:01:34;18.50;99.90
21592;DHT22;10958;50.892;3.992;2022-09-09T18:04:05;18.50;99.90
21592;DHT22;10958;50.892;3.992;2022-09-09T18:06:35;18.50;99.90
21592;DHT22;10958;50.892;3.992;2022-09-09T18:09:05;18.50;99.90
21592;DHT22;10958;50.892;3.992;2022-09-09T18:11:35;18.40;99.90
21592;DHT22;10958;50.892;3.992;2022-09-09T18:14:04;18.50;99.90
21592;DHT22;10958;50.892;3.992;2022-09-09T18:16:32;18.50;99.90
21592;DHT22;10958;50.892;3.992;2022-09-09T18:19:00;18.40;99.90
21592;DHT22;10958;50.892;3.992;2022-09-09T18:21:30;18.40;99.90
21592;DHT22;10958;50.892;3.992;2022-09-09T18:24:03;18.30;99.90
21592;DHT22;10958;50.892;3.992;2022-09-09T18:26:35;18.30;99.90
21592;DHT22;10958;50.892;3.992;2022-09-09T18:29:05;18.30;99.90
21592;DHT22;10958;50.892;3.992;2022-09-09T18:31:33;18.30;99.90
21592;DHT22;10958;50.892;3.992;2022-09-09T18:34:00;18.40;99.90
21592;DHT22;10958;50.892;3.992;2022-09-09T18:36:39;18.30;99.90
21592;DHT22;10958;50.892;3.992;2022-09-09T18:39:09;18.30;99.90
21592;DHT22;10958;50.892;3.992;2022-09-09T18:41:40;18.20;99.90
21592;DHT22;10958;50.892;3.992;2022-09-09T18:44:10;18.20;99.90
21592;DHT22;10958;50.892;3.992;2022-09-09T18:46:38;18.30;99.90
21592;DHT22;10958;50.892;3.992;2022-09-09T18:49:06;18.30;99.90
21592;DHT22;10958;50.892;3.992;2022-09-09T18:51:33;18.40;99.90
21592;DHT22;10958;50.892;3.992;2022-09-09T18:54:07;18.30;99.90
21592;DHT22;10958;50.892;3.992;2022-09-09T18:56:34;18.20;99.90
21592;DHT22;10958;50.892;3.992;2022-09-09T18:59:02;18.20;99.90
21592;DHT22;10958;50.892;3.992;2022-09-09T19:01:29;18.20;99.90
21592;DHT22;10958;50.892;3.992;2022-09-09T19:03:56;18.20;99.90
21592;DHT22;10958;50.892;3.992;2022-09-09T19:06:25;18.10;99.90
21592;DHT22;10958;50.892;3.992;2022-09-09T19:08:52;18.10;99.90
21592;DHT22;10958;50.892;3.992;2022-09-09T19:11:23;18.10;99.90
21592;DHT22;10958;50.892;3.992;2022-09-09T19:14:00;18.00;99.90
21592;DHT22;10958;50.892;3.992;2022-09-09T19:16:28;17.90;99.90
21592;DHT22;10958;50.892;3.992;2022-09-09T19:19:07;17.80;99.90
21592;DHT22;10958;50.892;3.992;2022-09-09T19:21:37;17.80;99.90
21592;DHT22;10958;50.892;3.992;2022-09-09T19:24:14;17.70;99.90
21592;DHT22;10958;50.892;3.992;2022-09-09T19:26:42;17.80;99.90
21592;DHT22;10958;50.892;3.992;2022-09-09T19:29:21;17.70;99.90
21592;DHT22;10958;50.892;3.992;2022-09-09T19:31:48;17.60;99.90
21592;DHT22;10958;50.892;3.992;2022-09-09T19:34:14;17.70;99.90
21592;DHT22;10958;50.892;3.992;2022-09-09T19:36:41;17.70;99.90
21592;DHT22;10958;50.892;3.992;2022-09-09T19:39:16;17.60;99.90
21592;DHT22;10958;50.892;3.992;2022-09-09T19:41:43;17.60;99.90
21592;DHT22;10958;50.892;3.992;2022-09-09T19:44:11;17.60;99.90
21592;DHT22;10958;50.892;3.992;2022-09-09T19:46:39;17.60;99.90
21592;DHT22;10958;50.892;3.992;2022-09-09T19:49:08;17.60;99.90
21592;DHT22;10958;50.892;3.992;2022-09-09T19:51:37;17.50;99.90
21592;DHT22;10958;50.892;3.992;2022-09-09T19:54:04;17.60;99.90
21592;DHT22;10958;50.892;3.992;2022-09-09T19:56:32;17.60;99.90
21592;DHT22;10958;50.892;3.992;2022-09-09T21:16:22;16.80;99.90
21592;DHT22;10958;50.892;3.992;2022-09-09T21:18:57;16.60;99.90
21592;DHT22;10958;50.892;3.992;2022-09-09T21:21:24;16.60;99.90
21592;DHT22;10958;50.892;3.992;2022-09-09T21:23:54;16.60;99.90
21592;DHT22;10958;50.892;3.992;2022-09-09T21:26:23;16.80;99.90
21592;DHT22;10958;50.892;3.992;2022-09-09T21:29:00;16.80;99.90
21592;DHT22;10958;50.892;3.992;2022-09-09T21:31:26;16.80;99.90
21592;DHT22;10958;50.892;3.992;2022-09-09T21:33:59;16.90;99.90
21592;DHT22;10958;50.892;3.992;2022-09-09T21:36:32;17.10;99.90
21592;DHT22;10958;50.892;3.992;2022-09-09T22:46:15;16.60;99.90
21592;DHT22;10958;50.892;3.992;2022-09-09T22:48:43;16.60;99.90
21592;DHT22;10958;50.892;3.992;2022-09-09T22:51:14;16.60;99.90
21592;DHT22;10958;50.892;3.992;2022-09-09T22:53:41;16.60;99.90
21592;DHT22;10958;50.892;3.992;2022-09-09T22:56:30;16.60;99.90
21592;DHT22;10958;50.892;3.992;2022-09-09T22:58:58;16.70;99.90
21592;DHT22;10958;50.892;3.992;2022-09-09T23:04:05;16.70;99.90
21592;DHT22;10958;50.892;3.992;2022-09-09T23:06:52;16.50;99.90
21592;DHT22;10958;50.892;3.992;2022-09-09T23:09:23;16.50;99.90
21592;DHT22;10958;50.892;3.992;2022-09-09T23:14:26;16.50;99.90
21592;DHT22;10958;50.892;3.992;2022-09-09T23:24:38;16.40;99.90
21592;DHT22;10958;50.892;3.992;2022-09-09T23:27:04;16.40;99.90
21592;DHT22;10958;50.892;3.992;2022-09-09T23:32:09;16.30;99.90
21592;DHT22;10958;50.892;3.992;2022-09-09T23:44:56;16.70;99.90
21592;DHT22;10958;50.892;3.992;2022-09-09T23:47:26;16.80;99.90
21592;DHT22;10958;50.892;3.992;2022-09-09T23:49:52;16.80;99.90
21592;DHT22;10958;50.892;3.992;2022-09-09T23:52:23;16.70;99.90
21592;DHT22;10958;50.892;3.992;2022-09-09T23:54:51;16.70;99.90
21592;DHT22;10958;50.892;3.992;2022-09-09T23:57:20;16.60;99.90
21592;DHT22;10958;50.892;3.992;2022-09-09T23:59:46;16.60;99.90
